EYPA/PLQ METAR and TAF weather

Enter ICAO airport designator
Station Type Date Time Source
EYPA METAR 2024/04/23 04:20 UTC NOAA

EYPA 230420Z 28007KT 220V360 9999 BKN022 02/M02 Q1017


Station Type Date Time Source
EYPA Decoded METAR 2024/04/23 04:20 UTC NOAA

Palanga Intl., Lithuania (EYPA) 55-55-12N 021-03E
Apr 23, 2024 - 12:20 AM EDT / 2024.04.23 0420 UTC
Wind: from the W (280 degrees) at 8 MPH (7 KT) (direction variable):0
Visibility: greater than 7 mile(s):0
Sky conditions: mostly cloudy
Temperature: 35 F (2 C)
Windchill: 28 F (-2 C):1
Dew Point: 28 F (-2 C)
Relative Humidity: 74%
Pressure (altimeter): 30.03 in. Hg (1017 hPa)
ob: EYPA 230420Z 28007KT 220V360 9999 BKN022 02/M02 Q1017
cycle: 4

Station Type Date Time Source
EYPA TAF 2024/04/22 18:04 UTC NOAA